Terminal Aerodrome Forecast
Issued by NWS El Paso, TX

Home | Current Version | Previous Version | Text Only | Print | Product List | Glossary On
Versions: 1 2 3 4 5 6 7 8 9 10 11 12 13 14
000
FTUS44 KEPZ 290540
TAFELP
TAF
KELP 290540Z 2906/3006 03007KT P6SM VCSH SCT060 SCT120 BKN250
     FM291000 VRB06KT P6SM SCT120 SCT250
     FM292000 10007KT P6SM VCTS SCT080CB BKN250=

USA.gov is the U.S. government's official web portal to all federal, state and local government web resources and services.